Time;durP1;ratioP1;P1;durP2;ratioP2;P2;SDS_P1;SDS_P2;PMS_P1;PMS_P2;Temp;Humidity;BMP_temperature;BMP_pressure;BME280_temperature;BME280_humidity;BME280_pressure;Samples;Min_cycle;Max_cycle;Signal;HPM_P1;HPM_P2
2021/04/18 00:00:13;;;;;;;8.35;2.53;;;4.30;99.90;;;2.57;73.33;101936.72;3507007;39;102592;-40
2021/04/18 00:02:40;;;;;;;5.45;2.45;;;4.30;99.90;;;2.52;73.70;101930.88;3515673;40;103073;-40
2021/04/18 00:05:09;;;;;;;5.97;2.90;;;4.30;99.90;;;2.52;74.09;101936.28;3508778;39;102728;-40
2021/04/18 00:07:36;;;;;;;5.97;2.50;;;4.20;99.90;;;2.46;74.24;101931.38;3517108;40;103292;-40
2021/04/18 00:10:07;;;;;;;5.03;2.33;;;4.20;99.90;;;2.39;74.19;101941.84;3507975;40;103169;-40
2021/04/18 00:12:34;;;;;;;6.35;3.00;;;4.10;99.90;;;2.33;74.10;101938.81;3508233;40;102408;-40
2021/04/18 00:15:06;;;;;;;6.27;2.63;;;4.00;99.90;;;2.29;74.41;101946.31;3516052;40;103142;-40
2021/04/18 00:17:33;;;;;;;5.63;2.78;;;4.00;99.90;;;2.26;74.71;101941.19;3516580;40;103993;-40
2021/04/18 00:20:03;;;;;;;6.65;2.50;;;4.00;99.90;;;2.22;74.71;101937.03;3508161;40;103469;-40
2021/04/18 00:22:30;;;;;;;7.68;2.63;;;3.90;99.90;;;2.17;74.83;101932.03;3501243;39;102147;-40
2021/04/18 00:24:57;;;;;;;6.45;2.80;;;3.90;99.90;;;2.15;75.54;101931.31;3499966;40;102267;-40
2021/04/18 00:27:25;;;;;;;5.25;2.58;;;3.80;99.90;;;2.13;75.30;101928.78;3499865;40;103081;-40
2021/04/18 00:29:52;;;;;;;10.23;3.10;;;3.90;99.90;;;2.14;75.46;101929.59;3508292;40;102488;-40
2021/04/18 00:32:20;;;;;;;5.97;2.70;;;3.90;99.90;;;2.17;75.79;101931.19;3508304;40;102426;-40
2021/04/18 00:34:47;;;;;;;5.90;2.47;;;3.90;99.90;;;2.18;75.66;101927.53;3507614;40;102369;-40
2021/04/18 00:37:14;;;;;;;5.60;2.78;;;3.90;99.90;;;2.17;76.16;101928.50;3508258;40;102355;-40
2021/04/18 00:39:42;;;;;;;7.10;2.63;;;3.90;99.90;;;2.22;76.52;101919.03;3500054;40;102560;-40
2021/04/18 00:42:10;;;;;;;;;;;3.90;99.90;;;2.25;76.53;101917.94;3516796;40;102291;-40
2021/04/18 00:44:37;;;;;;;6.35;2.28;;;4.00;99.90;;;2.23;76.85;101919.91;3499991;40;102785;-40
2021/04/18 00:47:04;;;;;;;5.60;2.80;;;3.90;99.90;;;2.21;76.86;101922.72;3516645;40;104646;-40
2021/04/18 00:49:32;;;;;;;5.50;2.40;;;3.90;99.90;;;2.20;76.78;101929.06;3508105;40;102265;-40
2021/04/18 00:51:59;;;;;;;7.22;2.70;;;3.90;99.90;;;2.16;77.03;101924.94;3500082;40;103036;-40
2021/04/18 00:54:28;;;;;;;5.67;2.40;;;3.90;99.90;;;2.13;77.19;101930.59;3516272;40;103278;-40
2021/04/18 00:56:55;;;;;;;7.20;2.60;;;3.90;99.90;;;2.11;77.22;101925.31;3516237;40;103043;-40
2021/04/18 00:59:23;;;;;;;6.60;2.42;;;3.90;99.90;;;2.10;77.20;101917.41;3500022;40;103346;-40
2021/04/18 01:01:50;;;;;;;5.65;2.55;;;3.90;99.90;;;2.09;77.79;101919.22;3509064;39;102696;-39
2021/04/18 01:04:18;;;;;;;6.55;2.67;;;3.80;99.90;;;2.07;77.31;101921.19;3508052;40;102266;-40
2021/04/18 01:06:45;;;;;;;7.78;2.63;;;3.80;99.90;;;2.01;77.95;101914.50;3492876;39;102559;-40
2021/04/18 01:09:12;;;;;;;6.17;2.40;;;3.70;99.90;;;1.94;77.78;101912.44;3499711;40;102443;-40
2021/04/18 01:11:40;;;;;;;5.75;2.65;;;3.70;99.90;;;1.88;77.88;101911.13;3500373;40;105404;-40
2021/04/18 01:14:08;;;;;;;5.20;2.85;;;3.60;99.90;;;1.84;78.08;101910.50;3500562;39;102346;-40
2021/04/18 01:16:36;;;;;;;5.28;2.33;;;3.60;99.90;;;1.83;78.52;101908.81;3509026;39;103064;-40
2021/04/18 01:19:04;;;;;;;4.22;2.20;;;3.50;99.90;;;1.79;78.77;101901.97;3516700;39;102333;-40
2021/04/18 01:21:32;;;;;;;;;;;3.50;99.90;;;1.74;78.10;101903.38;3508977;39;103351;-40
2021/04/18 01:24:10;;;;;;;7.63;2.60;;;3.50;99.90;;;1.73;78.39;101905.19;3501704;40;104183;-40
2021/04/18 01:26:45;;;;;;;4.68;2.53;;;3.50;99.90;;;1.70;78.61;101902.75;3502090;39;103208;-40
2021/04/18 01:29:13;;;;;;;5.82;2.50;;;3.40;99.90;;;1.66;78.58;101904.81;3508141;40;102511;-40
2021/04/18 01:31:40;;;;;;;5.03;2.58;;;3.40;99.90;;;1.65;79.21;101900.44;3507776;40;102604;-40
2021/04/18 01:34:13;;;;;;;6.87;2.70;;;3.40;99.90;;;1.65;79.11;101891.53;3516712;39;102362;-40
2021/04/18 01:36:50;;;;;;;7.13;2.80;;;3.40;99.90;;;1.70;79.63;101894.69;3508740;40;102730;-40
2021/04/18 01:39:18;;;;;;;6.22;2.70;;;3.40;99.90;;;1.76;79.88;101894.16;3516049;40;103155;-40
2021/04/18 01:41:45;;;;;;;;;;;3.50;99.90;;;1.85;79.88;101892.53;3500328;40;104268;-40
2021/04/18 01:44:13;;;;;;;5.07;2.72;;;3.50;99.90;;;1.96;79.82;101897.03;3499498;40;103959;-40
2021/04/18 01:46:46;;;;;;;6.55;3.20;;;3.60;99.90;;;2.02;80.41;101891.13;3508809;40;103139;-40
2021/04/18 01:49:15;;;;;;;6.15;2.67;;;3.60;99.90;;;2.10;80.37;101888.63;3508776;39;103163;-40
2021/04/18 01:51:43;;;;;;;5.50;2.80;;;3.80;99.90;;;2.22;81.05;101896.66;3507953;40;102494;-42
2021/04/18 01:54:12;;;;;;;5.95;3.20;;;3.80;99.90;;;2.32;81.50;101899.41;3507322;40;102276;-40
2021/04/18 01:56:40;;;;;;;6.13;3.13;;;3.90;99.90;;;2.38;81.58;101891.63;3499650;40;103134;-40
2021/04/18 01:59:10;;;;;;;5.50;2.92;;;4.00;99.90;;;2.42;81.56;101893.09;3508348;40;102249;-40
2021/04/18 02:01:47;;;;;;;6.95;2.90;;;4.00;99.90;;;2.49;81.40;101893.41;3508531;40;103933;-40
2021/04/18 02:04:21;;;;;;;5.75;2.92;;;4.10;99.90;;;2.57;80.73;101892.75;3507681;40;102095;-40
2021/04/18 02:06:53;;;;;;;7.63;3.60;;;4.20;99.90;;;2.64;80.39;101888.53;3515864;40;102320;-40
2021/04/18 02:09:20;;;;;;;6.10;3.10;;;4.30;99.90;;;2.73;80.88;101886.88;3499800;39;102518;-39
2021/04/18 02:11:49;;;;;;;7.88;3.40;;;4.30;99.90;;;2.77;80.63;101884.75;3508465;40;102357;-40
2021/04/18 02:14:18;;;;;;;8.32;2.85;;;4.40;99.90;;;2.85;80.58;101885.81;3507576;40;103404;-40
2021/04/18 02:16:55;;;;;;;6.15;3.10;;;4.50;99.90;;;2.91;79.93;101881.69;3515775;40;102267;-40
2021/04/18 02:19:22;;;;;;;6.30;3.00;;;4.50;99.90;;;2.95;79.32;101885.84;3499536;40;102326;-40
2021/04/18 02:21:50;;;;;;;4.63;2.63;;;4.60;99.90;;;2.99;78.84;101872.94;3507768;40;102475;-40
2021/04/18 02:24:18;;;;;;;6.73;3.20;;;4.60;99.90;;;2.98;78.92;101872.09;3499561;40;102428;-40
2021/04/18 02:26:46;;;;;;;8.57;3.40;;;4.60;99.90;;;3.06;78.30;101873.25;3499570;40;105057;-40
2021/04/18 02:29:23;;;;;;;6.27;2.97;;;4.70;99.90;;;3.11;78.34;101876.38;3508194;40;102296;-40
2021/04/18 02:31:56;;;;;;;5.97;3.22;;;4.70;99.90;;;3.10;78.77;101875.53;3500534;40;103234;-40
2021/04/18 02:34:26;;;;;;;6.68;3.55;;;4.70;99.90;;;3.09;78.65;101883.75;3500197;40;103553;-40
2021/04/18 02:36:53;;;;;;;;;;;4.70;99.90;;;3.12;78.62;101878.94;3508794;39;102843;-40
2021/04/18 02:39:21;;;;;;;6.10;3.75;;;4.70;99.90;;;3.18;77.16;101877.50;3507777;40;102635;-40
2021/04/18 02:41:49;;;;;;;8.85;3.05;;;4.80;99.90;;;3.23;77.74;101874.41;3507936;40;105256;-40
2021/04/18 02:44:18;;;;;;;6.47;3.47;;;4.80;99.90;;;3.24;78.36;101882.38;3507510;40;102467;-40
2021/04/18 02:46:47;;;;;;;7.53;3.80;;;4.80;99.90;;;3.26;78.58;101885.78;3508133;40;102231;-40
2021/04/18 02:49:16;;;;;;;7.72;3.70;;;4.90;99.90;;;3.27;78.14;101884.81;3508327;40;102460;-40
2021/04/18 02:51:45;;;;;;;8.60;3.63;;;4.90;99.90;;;3.28;78.92;101883.81;3515571;40;103310;-40
2021/04/18 02:54:12;;;;;;;9.32;4.20;;;4.90;99.90;;;3.30;79.44;101884.53;3507104;40;102819;-40
2021/04/18 02:56:47;;;;;;;8.32;3.55;;;4.90;99.90;;;3.31;78.53;101882.66;3515779;40;102284;-40
2021/04/18 02:59:17;;;;;;;6.50;3.13;;;4.90;99.90;;;3.33;77.79;101887.94;3500472;40;102974;-40
2021/04/18 03:01:45;;;;;;;7.75;3.63;;;4.90;99.90;;;3.34;78.53;101879.72;3515903;40;104209;-40
2021/04/18 03:04:13;;;;;;;;;;;4.90;99.90;;;3.38;78.56;101889.22;3515946;40;102297;-40
2021/04/18 03:06:41;;;;;;;6.53;3.28;;;5.00;99.90;;;3.41;78.39;101890.78;3507697;40;102881;-40
2021/04/18 03:09:09;;;;;;;;;;;5.00;99.90;;;3.41;78.10;101890.78;3507752;40;102439;-40
2021/04/18 03:11:42;;;;;;;4.93;3.13;;;5.00;99.90;;;3.43;78.15;101892.34;3508709;40;102080;-40
2021/04/18 03:14:19;;;;;;;9.45;3.83;;;5.00;99.90;;;3.49;77.66;101887.38;3508692;39;102365;-41
2021/04/18 03:16:48;;;;;;;9.00;3.97;;;5.10;99.90;;;3.51;76.54;101888.97;3499419;40;102437;-40
2021/04/18 03:19:17;;;;;;;8.35;3.83;;;5.10;99.90;;;3.52;76.41;101882.56;3507628;40;102391;-39
2021/04/18 03:21:49;;;;;;;8.05;3.42;;;5.10;99.90;;;3.54;75.65;101886.00;3515731;40;102288;-40
2021/04/18 03:24:17;;;;;;;6.75;3.67;;;5.10;99.90;;;3.54;76.76;101888.69;3507155;40;102357;-39
2021/04/18 03:26:45;;;;;;;7.32;3.70;;;5.20;99.90;;;3.56;76.56;101892.09;3507601;40;103074;-40
2021/04/18 03:29:13;;;;;;;8.45;3.92;;;5.10;99.90;;;3.58;77.04;101889.25;3515634;40;102765;-40
2021/04/18 03:31:42;;;;;;;8.57;3.65;;;5.20;99.90;;;3.58;76.89;101887.41;3508022;39;103164;-40
2021/04/18 03:34:11;;;;;;;8.80;4.35;;;5.20;99.90;;;3.59;75.69;101883.72;3499189;40;102289;-40
2021/04/18 03:36:39;;;;;;;;;;;5.20;99.90;;;3.61;76.42;101886.28;3499887;40;102334;-40
2021/04/18 03:39:14;;;;;;;10.85;4.32;;;5.20;99.90;;;3.61;76.51;101878.19;3500710;40;102381;-40
2021/04/18 03:41:45;;;;;;;7.82;3.83;;;5.20;99.90;;;3.63;76.68;101881.59;3508794;39;103182;-40
2021/04/18 03:44:13;;;;;;;9.48;4.22;;;5.20;99.90;;;3.66;76.62;101877.75;3499659;39;102632;-40
2021/04/18 03:46:42;;;;;;;9.45;4.38;;;5.20;99.90;;;3.65;77.51;101879.63;3499516;40;103233;-41
2021/04/18 03:49:13;;;;;;;10.00;4.60;;;5.20;99.90;;;3.67;77.11;101877.63;3515921;40;103396;-41
2021/04/18 03:51:55;;;;;;;9.23;4.35;;;5.20;99.90;;;3.66;76.77;101881.31;3515887;40;104144;-40
2021/04/18 03:54:23;;;;;;;;;;;5.30;99.90;;;3.66;77.09;101883.16;3499482;40;102746;-40
2021/04/18 03:56:52;;;;;;;8.60;4.00;;;5.20;99.90;;;3.72;77.49;101880.75;3515343;40;102173;-40
2021/04/18 03:59:24;;;;;;;8.73;4.45;;;5.30;99.90;;;3.72;76.27;101879.91;3516663;40;102229;-40
2021/04/18 04:01:55;;;;;;;8.63;4.60;;;5.30;99.90;;;3.72;76.54;101879.91;3516418;39;102165;-40
2021/04/18 04:04:24;;;;;;;13.25;4.82;;;5.30;99.90;;;3.73;76.13;101876.22;3514676;40;102400;-40
2021/04/18 04:06:52;;;;;;;7.70;4.00;;;5.30;99.90;;;3.68;76.23;101873.06;3507064;40;102204;-40
2021/04/18 04:09:20;;;;;;;;;;;5.30;99.90;;;3.72;77.03;101869.09;3507162;40;102225;-40
2021/04/18 04:11:53;;;;;;;9.68;4.13;;;5.30;99.90;;;3.74;76.59;101875.22;3508154;40;102269;-40
2021/04/18 04:14:28;;;;;;;8.13;4.30;;;5.30;99.90;;;3.71;76.85;101876.34;3500333;39;102255;-40
2021/04/18 04:16:59;;;;;;;12.65;4.93;;;5.30;99.90;;;3.73;77.13;101876.22;3522643;40;103081;-40
2021/04/18 04:19:38;;;;;;;9.27;4.82;;;5.30;99.90;;;3.74;77.82;101876.06;3515432;40;102564;-39
2021/04/18 04:22:25;;;;;;;11.05;4.57;;;5.30;99.90;;;3.74;77.48;101875.22;3515466;40;102914;-39
2021/04/18 04:25:09;;;;;;;10.18;4.50;;;5.30;99.90;;;3.74;77.18;101876.06;3508526;39;102341;-40
2021/04/18 04:27:36;;;;;;;10.07;4.55;;;5.30;99.90;;;3.76;77.05;101877.75;3515037;39;103132;-40
2021/04/18 04:30:06;;;;;;;7.30;4.10;;;5.30;99.90;;;3.74;76.87;101869.81;3507009;40;103071;-40
2021/04/18 04:32:34;;;;;;;9.95;4.68;;;5.30;99.90;;;3.77;76.92;101874.06;3514943;40;104367;-40
2021/04/18 04:35:02;;;;;;;7.97;4.32;;;5.30;99.90;;;3.76;76.37;101866.97;3514781;40;103117;-40
2021/04/18 04:37:29;;;;;;;10.13;4.65;;;5.30;99.90;;;3.77;76.75;101866.84;3514680;40;102325;-40
2021/04/18 04:39:56;;;;;;;8.33;4.30;;;5.30;99.90;;;3.79;76.81;101870.25;3506621;40;103211;-40
2021/04/18 04:42:24;;;;;;;9.25;4.45;;;5.30;99.90;;;3.81;76.45;101867.38;3514853;40;102159;-40
2021/04/18 04:44:51;;;;;;;10.33;4.33;;;5.40;99.90;;;3.84;77.73;101865.25;3498356;40;102956;-40
2021/04/18 04:47:19;;;;;;;11.13;4.70;;;5.40;99.90;;;3.84;77.60;101867.09;3498817;40;103190;-40
2021/04/18 04:49:47;;;;;;;8.30;4.38;;;5.40;99.90;;;3.84;77.05;101862.56;3491587;40;102878;-40
2021/04/18 04:52:14;;;;;;;8.60;4.22;;;5.40;99.90;;;3.87;78.10;101861.44;3508176;40;103451;-40
2021/04/18 04:54:41;;;;;;;9.63;4.70;;;5.40;99.90;;;3.89;78.11;101867.53;3507967;40;102375;-40
2021/04/18 04:57:09;;;;;;;8.02;4.45;;;5.40;99.90;;;3.88;77.55;101861.28;3507915;40;104080;-40
2021/04/18 04:59:39;;;;;;;9.82;5.32;;;5.50;99.90;;;3.90;78.01;101874.66;3516663;40;103994;-40
2021/04/18 05:02:06;;;;;;;15.77;8.10;;;5.40;99.90;;;3.96;78.43;101873.19;3500486;40;104001;-40
2021/04/18 05:04:35;;;;;;;14.63;7.10;;;5.50;99.90;;;3.97;77.76;101873.06;3491683;39;102468;-40
2021/04/18 05:07:02;;;;;;;20.95;9.57;;;5.50;99.90;;;3.97;77.63;101873.06;3516197;40;104065;-40
2021/04/18 05:09:30;;;;;;;19.90;9.53;;;5.50;99.90;;;3.99;77.20;101875.63;3508157;39;102578;-39
2021/04/18 05:11:57;;;;;;;21.40;9.73;;;5.50;99.90;;;4.01;77.36;101895.25;3507992;40;104942;-40
2021/04/18 05:14:25;;;;;;;20.83;9.77;;;5.60;99.90;;;4.03;77.72;101894.09;3515979;40;102281;-40
2021/04/18 05:16:52;;;;;;;22.75;10.10;;;5.50;99.90;;;4.03;78.00;101894.09;3507889;40;104272;-40
2021/04/18 05:19:19;;;;;;;17.75;8.40;;;5.60;99.90;;;4.03;77.75;101899.50;3508004;40;102178;-40
2021/04/18 05:21:47;;;;;;;18.48;8.75;;;5.60;99.90;;;4.03;77.72;101893.25;3517210;39;102174;-40
2021/04/18 05:24:14;;;;;;;19.30;8.97;;;5.60;99.90;;;4.06;79.05;101903.78;3507865;40;102879;-40
2021/04/18 05:26:41;;;;;;;18.73;8.70;;;5.60;99.90;;;4.11;79.13;101896.09;3508164;40;104956;-40
2021/04/18 05:29:08;;;;;;;15.98;7.57;;;5.70;99.90;;;4.13;78.95;101912.16;3508024;40;102566;-40
2021/04/18 05:31:36;;;;;;;16.00;7.15;;;5.60;99.90;;;4.19;79.72;101911.59;3507973;40;102240;-40
2021/04/18 05:34:03;;;;;;;16.03;7.73;;;5.70;99.90;;;4.25;79.74;101908.31;3508032;40;103351;-40
2021/04/18 05:36:30;;;;;;;17.13;8.30;;;5.70;99.90;;;4.25;78.79;101896.66;3508025;40;104832;-41
2021/04/18 05:38:57;;;;;;;16.60;7.78;;;5.80;99.90;;;4.28;78.14;101910.72;3507564;40;102361;-40
2021/04/18 05:41:25;;;;;;;14.90;7.60;;;5.80;99.90;;;4.29;78.32;101888.09;3507882;40;103113;-40
2021/04/18 05:43:52;;;;;;;11.83;6.67;;;5.80;99.90;;;4.33;78.17;101891.38;3499461;40;102361;-39
2021/04/18 05:46:19;;;;;;;14.55;7.18;;;5.80;99.90;;;4.34;77.97;101895.78;3507761;40;103958;-40
2021/04/18 05:48:46;;;;;;;11.95;6.40;;;5.80;99.90;;;4.37;78.06;101895.47;3516545;40;102559;-40
2021/04/18 05:51:13;;;;;;;12.80;6.03;;;5.80;99.90;;;4.42;77.83;101898.59;3524459;40;104148;-40
2021/04/18 05:53:40;;;;;;;12.40;6.30;;;5.90;99.90;;;4.49;77.88;101900.72;3515989;40;103577;-40
2021/04/18 05:56:08;;;;;;;12.70;6.95;;;5.90;99.90;;;4.56;78.46;101894.59;3508054;40;104966;-40
2021/04/18 05:58:35;;;;;;;13.98;6.95;;;6.00;99.90;;;4.65;77.35;101898.25;3515931;40;103219;-40
2021/04/18 06:01:02;;;;;;;14.32;7.63;;;6.10;99.90;;;4.75;78.04;101898.22;3524008;39;102480;-40
2021/04/18 06:03:30;;;;;;;17.42;8.85;;;6.10;99.90;;;4.87;77.82;101901.59;3507533;40;105075;-40
2021/04/18 06:05:58;;;;;;;17.20;8.82;;;6.30;99.90;;;4.89;77.15;101899.59;3516057;40;104042;-40
2021/04/18 06:08:25;;;;;;;19.97;8.63;;;6.30;99.90;;;4.96;76.47;101905.28;3499948;40;102492;-40
2021/04/18 06:10:52;;;;;;;21.52;10.65;;;6.40;99.90;;;5.02;76.28;101910.09;3507104;40;103235;-40
2021/04/18 06:13:21;;;;;;;22.65;10.60;;;6.40;99.90;;;5.04;76.04;101906.25;3499934;40;103455;-39
2021/04/18 06:15:48;;;;;;;19.70;9.48;;;6.50;99.90;;;5.08;76.07;101914.88;3499670;40;103391;-40
2021/04/18 06:18:16;;;;;;;23.75;12.40;;;6.50;99.90;;;5.01;76.15;101921.91;3508614;39;102174;-40
2021/04/18 06:20:43;;;;;;;25.85;12.35;;;6.50;99.90;;;5.02;76.77;101923.59;3515458;40;102212;-40
2021/04/18 06:23:10;;;;;;;29.05;13.70;;;6.50;99.90;;;5.07;76.55;101923.16;3516890;39;102185;-40
2021/04/18 06:25:37;;;;;;;24.33;12.70;;;6.50;99.90;;;5.05;76.75;101923.31;3516285;40;103013;-40
2021/04/18 06:28:05;;;;;;;26.38;13.80;;;6.50;99.90;;;5.16;76.70;101923.09;3507756;40;103530;-40
2021/04/18 06:30:33;;;;;;;22.83;11.88;;;6.60;99.90;;;5.30;75.86;101920.91;3507924;40;103206;-40
2021/04/18 06:33:00;;;;;;;24.60;11.48;;;6.70;99.90;;;5.45;76.44;101918.53;3507738;40;102327;-40
2021/04/18 06:35:27;;;;;;;19.30;10.07;;;6.80;99.90;;;5.59;75.57;101917.19;3507074;40;102429;-40
2021/04/18 06:37:54;;;;;;;21.67;10.20;;;6.90;99.90;;;5.66;75.38;101922.84;3499482;40;103378;-40
2021/04/18 06:40:21;;;;;;;18.98;9.50;;;7.00;99.90;;;5.75;75.09;101924.63;3499559;40;102989;-40
2021/04/18 06:42:53;;;;;;;16.27;8.65;;;7.10;99.90;;;5.83;74.72;101916.56;3515915;40;102329;-40
2021/04/18 06:45:21;;;;;;;16.70;8.13;;;7.10;99.90;;;5.90;74.88;101914.09;3516319;40;104911;-40
2021/04/18 06:47:51;;;;;;;15.05;8.52;;;7.20;99.90;;;6.02;75.00;101904.78;3515887;40;102418;-40
2021/04/18 06:50:19;;;;;;;15.50;8.40;;;7.30;99.90;;;6.08;73.59;101914.13;3515915;40;104763;-40
2021/04/18 06:52:47;;;;;;;;;;;7.40;99.90;;;6.09;73.34;101915.81;3508471;40;102322;-40
2021/04/18 06:55:15;;;;;;;15.43;7.18;;;7.40;99.90;;;6.15;74.56;101919.78;3515595;40;103072;-40
2021/04/18 06:57:44;;;;;;;14.10;6.78;;;7.50;99.90;;;6.11;73.14;101916.53;3515622;40;104248;-40
2021/04/18 07:00:14;;;;;;;15.07;7.22;;;7.50;99.90;;;6.23;73.74;101913.56;3516433;40;103131;-40
2021/04/18 07:02:41;;;;;;;13.50;6.97;;;7.50;99.90;;;6.32;73.69;101899.06;3517553;39;102348;-40
2021/04/18 07:05:14;;;;;;;17.00;7.90;;;7.60;99.90;;;6.40;74.11;101892.88;3507311;40;104127;-40
2021/04/18 07:07:44;;;;;;;13.30;6.85;;;7.70;99.90;;;6.50;73.83;101899.06;3508202;40;103586;-40
2021/04/18 07:10:27;;;;;;;13.68;7.22;;;7.80;99.90;;;6.52;72.27;101899.75;3641748;23;104051;-41
2021/04/18 07:12:54;;;;;;;18.17;7.45;;;7.80;99.90;;;6.62;72.93;101897.75;3543101;39;102414;-41
2021/04/18 07:15:42;;;;;;;15.30;7.40;;;7.90;99.90;;;6.81;73.56;101894.97;3549826;39;104171;-41
2021/04/18 07:18:33;;;;;;;16.65;8.55;;;8.00;99.90;;;6.90;72.14;101894.03;3550650;39;102238;-41
2021/04/18 07:21:01;;;;;;;23.63;10.48;;;8.10;99.90;;;7.01;71.55;101901.00;3550831;39;104093;-41
2021/04/18 07:23:33;;;;;;;25.17;12.25;;;8.30;99.90;;;7.11;71.35;101892.75;3517414;39;102378;-40
2021/04/18 07:26:26;;;;;;;24.35;12.20;;;8.40;99.90;;;7.24;70.21;101895.00;3517655;39;102284;-41
2021/04/18 07:29:15;;;;;;;27.50;12.52;;;8.50;99.90;;;7.33;69.66;101894.88;3535928;39;103446;-41
2021/04/18 07:31:44;;;;;;;23.00;10.85;;;8.60;99.90;;;7.41;70.07;101896.75;3542737;39;103094;-41
2021/04/18 07:34:20;;;;;;;20.25;10.77;;;8.60;99.90;;;7.61;70.14;101902.75;3542486;39;102542;-41
2021/04/18 07:37:04;;;;;;;17.75;8.63;;;8.80;99.90;;;7.63;68.56;101906.16;3550765;39;102381;-41
2021/04/18 07:39:53;;;;;;;16.02;8.32;;;8.90;99.90;;;7.62;69.11;101906.31;3550663;39;103555;-41
2021/04/18 07:42:42;;;;;;;16.85;7.75;;;8.90;99.90;;;7.67;69.80;101908.53;3517536;39;104841;-41
2021/04/18 07:45:14;;;;;;;21.25;9.45;;;9.00;99.90;;;7.70;67.34;101910.94;3517710;39;103642;-41
2021/04/18 07:47:45;;;;;;;19.30;9.77;;;9.10;99.90;;;7.74;68.79;101923.16;3550507;39;102361;-41
2021/04/18 07:50:20;;;;;;;18.52;9.35;;;9.10;99.90;;;7.87;68.27;101914.53;3541995;39;102529;-41
2021/04/18 07:52:50;;;;;;;17.30;8.45;;;9.20;99.90;;;7.91;67.65;101918.59;3549490;39;105105;-41
2021/04/18 07:55:20;;;;;;;16.80;8.32;;;9.20;99.90;;;7.88;67.64;101917.06;3517226;39;102249;-41
2021/04/18 07:57:50;;;;;;;14.50;8.43;;;9.20;99.90;;;8.02;67.77;101915.53;3517135;39;105221;-41
2021/04/18 08:00:19;;;;;;;19.95;9.00;;;9.40;99.90;;;8.12;67.52;101912.66;3517281;39;102049;-41
2021/04/18 08:02:50;;;;;;;17.35;7.80;;;9.40;99.90;;;8.29;68.05;101907.22;3517407;39;104372;-41
2021/04/18 08:05:22;;;;;;;16.83;8.15;;;9.50;99.90;;;8.51;68.42;101902.97;3517128;39;102086;-41
2021/04/18 08:08:12;;;;;;;17.55;8.35;;;9.70;99.90;;;8.73;67.34;101886.97;3517200;39;103472;-41
2021/04/18 08:10:44;;;;;;;17.45;8.70;;;9.80;99.90;;;8.86;66.99;101889.13;3541396;39;102757;-41
2021/04/18 08:13:22;;;;;;;16.55;8.60;;;9.90;99.90;;;8.97;65.88;101890.63;3542184;39;103115;-42
2021/04/18 08:16:03;;;;;;;19.83;8.07;;;10.10;99.90;;;9.20;64.78;101896.13;3517521;39;102375;-41
2021/04/18 08:18:42;;;;;;;17.52;7.32;;;10.20;99.90;;;9.43;63.59;101890.75;3557246;39;104233;-41
2021/04/18 08:21:32;;;;;;;16.10;7.53;;;10.40;99.90;;;9.51;63.21;101898.03;3517023;39;105271;-41
2021/04/18 08:24:04;;;;;;;14.05;7.03;;;10.50;99.90;;;9.58;62.35;101893.56;3550503;39;105004;-41
2021/04/18 08:26:35;;;;;;;19.45;7.93;;;10.70;99.90;;;9.57;62.54;101907.34;3518417;39;104146;-41
2021/04/18 08:29:08;;;;;;;14.18;7.63;;;10.70;99.90;;;9.55;62.86;101902.09;3518703;39;104083;-41
2021/04/18 08:31:55;;;;;;;16.48;7.18;;;10.70;99.90;;;9.59;62.62;101891.69;3551631;39;103908;-41
2021/04/18 08:34:29;;;;;;;14.50;7.65;;;10.70;99.90;;;9.67;62.98;101893.50;3548529;39;102231;-41
2021/04/18 08:37:00;;;;;;;20.08;7.90;;;10.80;99.90;;;9.67;62.76;101891.63;3518226;40;102738;-41
2021/04/18 08:39:31;;;;;;;14.02;7.28;;;10.90;99.90;;;9.74;63.46;101889.88;3509276;39;105961;-41
2021/04/18 08:42:03;;;;;;;13.57;7.32;;;10.90;99.90;;;9.46;61.35;101889.53;3518270;40;103283;-41
2021/04/18 08:44:41;;;;;;;15.30;7.40;;;10.90;99.90;;;9.43;62.14;101888.03;3550165;39;102316;-41
2021/04/18 08:47:13;;;;;;;15.20;7.25;;;10.80;99.90;;;9.68;62.37;101889.75;3548408;39;102312;-41
2021/04/18 08:49:43;;;;;;;14.05;6.97;;;10.80;99.90;;;9.73;60.02;101887.34;3543025;39;103392;-41
2021/04/18 08:52:33;;;;;;;13.13;6.95;;;10.90;99.90;;;9.84;60.64;101896.97;3517810;40;102115;-41
2021/04/18 08:55:15;;;;;;;12.95;6.82;;;11.00;99.90;;;9.86;58.88;101895.78;3551493;39;105114;-41
2021/04/18 08:57:42;;;;;;;18.08;7.18;;;11.00;99.90;;;9.64;60.07;101900.16;3518191;39;103275;-41
2021/04/18 09:00:15;;;;;;;15.02;7.03;;;11.00;99.90;;;9.59;59.45;101898.00;3518819;39;103134;-41
2021/04/18 09:02:54;;;;;;;18.88;8.70;;;10.90;99.90;;;9.61;59.66;101904.09;3518111;39;102286;-41
2021/04/18 09:05:24;;;;;;;19.45;10.02;;;10.90;99.90;;;9.67;59.35;101896.22;3517945;39;102224;-41
2021/04/18 09:07:52;;;;;;;17.55;9.50;;;10.90;99.90;;;9.79;58.77;101901.09;3550882;39;103488;-41
2021/04/18 09:10:20;;;;;;;16.85;7.68;;;11.00;99.90;;;9.84;58.74;101899.69;3542871;39;105835;-41
2021/04/18 09:12:48;;;;;;;18.25;8.60;;;11.00;99.90;;;9.89;58.78;101895.41;3543077;39;102424;-41
2021/04/18 09:15:15;;;;;;;17.83;10.20;;;11.10;99.90;;;9.97;60.47;101890.91;3517701;39;102328;-41
2021/04/18 09:17:43;;;;;;;21.73;10.50;;;11.10;99.90;;;10.18;59.05;101899.25;3550779;39;103925;-41
2021/04/18 09:20:17;;;;;;;19.95;10.35;;;11.20;99.90;;;10.19;59.55;101894.63;3534508;39;104090;-43
2021/04/18 09:22:44;;;;;;;19.42;10.35;;;11.30;99.90;;;10.30;59.06;101902.41;3543410;39;102338;-41
2021/04/18 09:25:23;;;;;;;20.85;10.98;;;11.50;99.90;;;10.41;57.30;101901.13;3550982;39;104212;-41
2021/04/18 09:27:53;;;;;;;;;;;11.50;99.90;;;10.64;58.44;101895.59;3544308;39;104139;-41
2021/04/18 09:30:27;;;;;;;20.45;10.75;;;11.70;99.90;;;10.60;58.13;101888.84;3518441;39;105090;-41
2021/04/18 09:32:59;;;;;;;19.60;10.43;;;11.80;99.90;;;10.76;57.28;101904.19;3549778;39;102322;-41
2021/04/18 09:35:29;;;;;;;20.80;10.30;;;11.80;99.90;;;10.76;57.25;101906.09;3550726;39;104777;-41
2021/04/18 09:38:00;;;;;;;20.17;10.55;;;11.90;99.90;;;10.76;58.08;101901.44;3550308;39;102324;-41
2021/04/18 09:40:33;;;;;;;17.92;9.55;;;11.90;99.90;;;10.75;56.56;101894.31;3518320;39;103112;-41
2021/04/18 09:43:06;;;;;;;18.42;9.38;;;11.90;99.90;;;10.42;55.97;101904.69;3518547;39;102180;-41
2021/04/18 09:45:36;;;;;;;20.58;9.70;;;11.90;99.90;;;10.21;58.23;101904.34;3549258;39;102146;-41
2021/04/18 09:48:17;;;;;;;16.75;8.90;;;11.60;99.90;;;10.18;58.30;101918.34;3518559;39;102461;-41
2021/04/18 09:51:07;;;;;;;20.60;9.23;;;11.50;99.90;;;10.23;58.19;101909.63;3517968;39;102660;-41
2021/04/18 09:53:35;;;;;;;17.83;9.52;;;11.60;99.90;;;10.33;61.53;101917.53;3550001;39;104028;-41
2021/04/18 09:56:08;;;;;;;18.10;9.70;;;11.60;99.90;;;10.50;60.67;101919.13;3550297;39;102789;-41
2021/04/18 09:58:46;;;;;;;18.50;9.52;;;11.70;99.90;;;10.60;61.25;101904.34;3517984;39;103364;-41
2021/04/18 10:01:34;;;;;;;19.35;9.52;;;11.80;99.90;;;10.83;59.30;101901.56;3550843;39;102222;-41
2021/04/18 10:04:01;;;;;;;18.50;10.18;;;11.90;99.90;;;11.07;59.36;101905.88;3517414;40;103396;-41
2021/04/18 10:06:48;;;;;;;20.15;9.55;;;12.10;99.90;;;11.30;56.56;101904.91;3542381;39;102347;-41
2021/04/18 10:09:16;;;;;;;15.70;8.27;;;12.20;99.90;;;11.48;56.37;101901.75;3549713;39;103442;-41
2021/04/18 10:12:03;;;;;;;15.45;7.40;;;12.40;99.90;;;11.53;55.32;101898.47;3517967;40;103310;-42
2021/04/18 10:14:31;;;;;;;12.32;6.18;;;12.60;99.90;;;11.49;56.06;101897.16;3518118;39;102160;-43
2021/04/18 10:16:58;;;;;;;10.60;5.93;;;12.60;99.90;;;11.62;56.15;101893.72;3550853;39;104084;-41
2021/04/18 10:19:28;;;;;;;15.32;6.55;;;12.70;99.90;;;11.79;55.66;101894.31;3533027;39;102611;-41
2021/04/18 10:22:09;;;;;;;14.60;7.97;;;12.80;99.90;;;11.76;54.79;101892.81;3542929;39;103600;-41
2021/04/18 10:27:31;;;;;;;15.97;7.63;;;13.00;99.90;;;11.88;54.19;101884.09;3517821;39;102442;-41
2021/04/18 10:30:05;;;;;;;13.63;6.82;;;13.00;99.90;;;11.86;53.52;101889.75;3517032;40;102880;-41
2021/04/18 10:32:33;;;;;;;12.23;6.25;;;13.00;99.90;;;11.85;53.73;101888.06;3516966;40;103166;-41